Time;durP1;ratioP1;P1;durP2;ratioP2;P2;SDS_P1;SDS_P2;PMS_P1;PMS_P2;Temp;Humidity;BMP_temperature;BMP_pressure;BME280_temperature;BME280_humidity;BME280_pressure;Samples;Min_cycle;Max_cycle;Signal;HPM_P1;HPM_P2
2024/01/14 00:00:56;;;;;;;22.77;2.78;;;4.10;99.90;;;;;;5093557;28;20079;-74
2024/01/14 00:03:24;;;;;;;28.30;3.47;;;4.10;99.90;;;;;;5094165;28;20524;-74
2024/01/14 00:05:50;;;;;;;19.85;2.85;;;4.10;99.90;;;;;;5094619;28;20036;-74
2024/01/14 00:08:16;;;;;;;22.37;2.93;;;4.10;99.90;;;;;;5094439;28;20505;-73
2024/01/14 00:10:41;;;;;;;20.90;3.13;;;4.10;99.90;;;;;;5093385;28;20056;-74
2024/01/14 00:13:07;;;;;;;25.10;3.33;;;4.10;99.90;;;;;;5094252;28;20101;-73
2024/01/14 00:15:33;;;;;;;18.27;3.47;;;4.20;99.90;;;;;;5093236;28;20052;-74
2024/01/14 00:17:59;;;;;;;29.23;3.70;;;4.20;99.90;;;;;;5093362;28;20048;-73
2024/01/14 00:20:24;;;;;;;25.63;3.27;;;4.20;99.90;;;;;;5093750;28;20044;-73
2024/01/14 00:22:50;;;;;;;19.00;2.70;;;4.20;99.90;;;;;;5094350;28;20047;-74
2024/01/14 00:25:18;;;;;;;21.10;2.50;;;4.20;99.90;;;;;;5093598;28;20070;-73
2024/01/14 00:27:44;;;;;;;20.90;3.10;;;4.20;99.90;;;;;;5094240;28;20047;-74
2024/01/14 00:30:10;;;;;;;17.83;2.17;;;4.20;99.90;;;;;;5090923;28;20048;-73
2024/01/14 00:32:36;;;;;;;24.50;3.15;;;4.20;99.90;;;;;;5092007;28;20547;-73
2024/01/14 00:35:02;;;;;;;23.30;3.30;;;4.30;99.90;;;;;;5091971;28;20481;-73
2024/01/14 00:37:27;;;;;;;19.30;2.57;;;4.30;99.90;;;;;;5091672;28;20086;-73
2024/01/14 00:39:53;;;;;;;19.90;2.73;;;4.30;99.90;;;;;;5091607;28;20055;-74
2024/01/14 00:42:19;;;;;;;18.13;2.33;;;4.40;99.90;;;;;;5091669;28;20131;-74
2024/01/14 00:44:44;;;;;;;24.80;3.53;;;4.40;99.90;;;;;;5091537;28;20052;-73
2024/01/14 00:47:10;;;;;;;27.63;2.77;;;4.40;99.90;;;;;;5093909;28;20086;-74
2024/01/14 00:49:36;;;;;;;23.63;3.60;;;4.50;99.90;;;;;;5093738;28;20051;-74
2024/01/14 00:52:02;;;;;;;15.33;2.80;;;4.50;99.90;;;;;;5093564;28;20521;-74
2024/01/14 00:54:28;;;;;;;18.33;3.05;;;4.50;99.90;;;;;;5093677;28;20075;-73
2024/01/14 00:56:53;;;;;;;20.23;2.70;;;4.50;99.90;;;;;;5093615;28;20462;-73
2024/01/14 00:59:19;;;;;;;16.63;2.50;;;4.60;99.90;;;;;;5093551;28;20047;-73
2024/01/14 01:01:45;;;;;;;17.23;2.03;;;4.60;99.90;;;;;;5093644;28;20047;-73
2024/01/14 01:04:11;;;;;;;16.13;2.17;;;4.60;99.90;;;;;;5092713;28;20125;-74
2024/01/14 01:06:36;;;;;;;16.03;2.23;;;4.60;99.90;;;;;;5092288;28;20074;-74
2024/01/14 01:09:02;;;;;;;14.30;1.90;;;4.50;99.90;;;;;;5075589;28;20036;-74
2024/01/14 01:11:28;;;;;;;15.07;2.00;;;4.50;99.90;;;;;;5093271;28;20044;-71
2024/01/14 01:13:54;;;;;;;15.25;2.28;;;4.50;99.90;;;;;;5093423;28;20079;-72
2024/01/14 01:16:20;;;;;;;16.92;1.80;;;4.60;99.90;;;;;;5093194;28;20048;-71
2024/01/14 01:18:46;;;;;;;15.63;3.33;;;4.60;99.90;;;;;;5093394;28;20036;-71
2024/01/14 01:21:19;;;;;;;17.77;2.00;;;4.60;99.90;;;;;;5093445;28;20486;-72
2024/01/14 01:23:45;;;;;;;16.92;2.58;;;4.70;99.90;;;;;;5093773;28;20048;-71
2024/01/14 01:26:11;;;;;;;16.83;2.20;;;4.60;99.90;;;;;;5093403;28;20500;-71
2024/01/14 01:28:36;;;;;;;15.87;2.40;;;4.60;99.90;;;;;;5093084;28;20048;-72
2024/01/14 01:31:03;;;;;;;14.27;2.60;;;4.60;99.90;;;;;;5093348;28;20048;-71
2024/01/14 01:33:28;;;;;;;20.77;3.42;;;4.60;99.90;;;;;;5096608;28;20047;-71
2024/01/14 01:35:54;;;;;;;12.73;2.20;;;4.60;99.90;;;;;;5096337;28;20044;-71
2024/01/14 01:38:20;;;;;;;16.10;2.10;;;4.50;99.90;;;;;;5097209;28;20040;-71
2024/01/14 01:40:46;;;;;;;17.67;2.30;;;4.50;99.90;;;;;;5097406;28;20047;-71
2024/01/14 01:43:12;;;;;;;20.83;2.90;;;4.50;99.90;;;;;;5097388;28;20074;-71
2024/01/14 01:45:37;;;;;;;19.13;3.33;;;4.40;99.90;;;;;;5096131;28;20126;-71
2024/01/14 01:48:04;;;;;;;18.63;2.23;;;4.30;99.90;;;;;;5096330;28;20374;-71
2024/01/14 01:50:31;;;;;;;17.88;2.22;;;4.30;99.90;;;;;;5097381;28;20040;-71
2024/01/14 01:52:58;;;;;;;19.55;2.85;;;4.30;99.90;;;;;;5095897;28;20068;-71
2024/01/14 01:55:23;;;;;;;21.75;2.75;;;4.20;99.90;;;;;;5096947;28;20048;-71
2024/01/14 01:57:49;;;;;;;15.63;2.07;;;4.20;99.90;;;;;;5097053;28;20051;-71
2024/01/14 02:00:16;;;;;;;23.77;2.03;;;4.20;99.90;;;;;;5097082;28;20052;-71
2024/01/14 02:02:42;;;;;;;27.15;3.03;;;4.20;99.90;;;;;;5095861;28;20052;-71
2024/01/14 02:05:09;;;;;;;15.45;2.47;;;4.20;99.90;;;;;;5097062;28;20048;-71
2024/01/14 02:07:36;;;;;;;19.02;3.05;;;4.20;99.90;;;;;;5095742;28;20382;-71
2024/01/14 02:10:02;;;;;;;18.25;2.42;;;4.10;99.90;;;;;;5095736;28;20044;-71
2024/01/14 02:12:28;;;;;;;24.30;3.10;;;4.10;99.90;;;;;;5095463;28;20046;-71
2024/01/14 02:14:53;;;;;;;23.10;2.87;;;4.10;99.90;;;;;;5095635;28;20044;-71
2024/01/14 02:17:19;;;;;;;19.63;2.60;;;4.10;99.90;;;;;;5096796;28;20048;-72
2024/01/14 02:19:45;;;;;;;20.97;3.60;;;4.00;99.90;;;;;;5096413;28;20055;-71
2024/01/14 02:22:24;;;;;;;18.30;2.70;;;4.00;99.90;;;;;;5096613;28;20044;-71
2024/01/14 02:24:51;;;;;;;17.70;2.83;;;3.90;99.90;;;;;;5096880;28;20052;-71
2024/01/14 02:27:17;;;;;;;25.13;4.68;;;3.90;99.90;;;;;;5096150;28;20063;-71
2024/01/14 02:29:44;;;;;;;15.37;2.33;;;3.80;99.90;;;;;;5095427;28;20481;-71
2024/01/14 02:32:09;;;;;;;13.95;2.33;;;3.80;99.90;;;;;;5093771;28;20047;-71
2024/01/14 02:34:35;;;;;;;22.80;2.33;;;3.80;99.90;;;;;;5095798;28;20085;-71
2024/01/14 02:37:02;;;;;;;17.20;2.30;;;3.70;99.90;;;;;;5094866;28;20474;-71
2024/01/14 02:39:28;;;;;;;18.42;2.83;;;3.70;99.90;;;;;;5095717;28;20560;-71
2024/01/14 02:41:54;;;;;;;16.67;3.03;;;3.70;99.90;;;;;;5095913;28;20051;-71
2024/01/14 02:44:20;;;;;;;25.93;3.70;;;3.70;99.90;;;;;;5094958;28;20048;-71
2024/01/14 02:46:46;;;;;;;26.30;3.33;;;3.60;99.90;;;;;;5094833;28;20055;-72
2024/01/14 02:49:12;;;;;;;16.67;2.40;;;3.60;99.90;;;;;;5096098;28;20470;-72
2024/01/14 02:51:38;;;;;;;23.58;2.72;;;3.60;99.90;;;;;;5095660;28;20059;-72
2024/01/14 02:54:03;;;;;;;23.43;2.90;;;3.50;99.90;;;;;;5095723;28;20058;-72
2024/01/14 02:56:29;;;;;;;19.47;2.33;;;3.50;99.90;;;;;;5094681;28;20047;-71
2024/01/14 02:58:56;;;;;;;20.40;3.17;;;3.40;99.90;;;;;;5096198;28;20385;-71
2024/01/14 03:01:21;;;;;;;24.92;3.58;;;3.40;99.90;;;;;;5095917;28;20131;-72
2024/01/14 03:03:47;;;;;;;22.17;2.93;;;3.50;99.90;;;;;;5095587;28;20127;-71
2024/01/14 03:06:13;;;;;;;24.43;3.37;;;3.50;99.90;;;;;;5095788;28;20055;-72
2024/01/14 03:08:39;;;;;;;37.47;4.40;;;3.50;99.90;;;;;;5095537;28;20040;-72
2024/01/14 03:11:05;;;;;;;24.40;2.42;;;3.50;99.90;;;;;;5096230;28;20087;-72
2024/01/14 03:13:31;;;;;;;15.70;2.70;;;3.50;99.90;;;;;;5095149;28;20075;-71
2024/01/14 03:15:56;;;;;;;19.27;2.60;;;3.50;99.90;;;;;;5095641;28;20048;-72
2024/01/14 03:18:22;;;;;;;24.33;2.80;;;3.40;99.90;;;;;;5077786;28;20130;-72
2024/01/14 03:20:48;;;;;;;18.20;2.27;;;3.50;99.90;;;;;;5095375;28;20051;-72
2024/01/14 03:23:13;;;;;;;27.33;3.20;;;3.50;99.90;;;;;;5095478;28;20442;-72
2024/01/14 03:25:39;;;;;;;31.83;3.30;;;3.50;99.90;;;;;;5094070;28;20439;-71
2024/01/14 03:28:05;;;;;;;21.73;2.33;;;3.60;99.90;;;;;;5095066;28;20055;-71
2024/01/14 03:30:31;;;;;;;22.57;3.03;;;3.50;99.90;;;;;;5095330;28;20040;-72
2024/01/14 03:32:56;;;;;;;20.70;2.90;;;3.60;99.90;;;;;;5095193;28;20067;-72
2024/01/14 03:35:22;;;;;;;26.37;2.80;;;3.50;99.90;;;;;;5094049;28;20048;-71
2024/01/14 03:37:48;;;;;;;20.53;2.80;;;3.60;99.90;;;;;;5094883;28;20132;-71
2024/01/14 03:40:14;;;;;;;25.30;2.73;;;3.60;99.90;;;;;;5094168;28;20044;-73
2024/01/14 03:42:39;;;;;;;21.97;2.87;;;3.60;99.90;;;;;;5094868;28;20043;-73
2024/01/14 03:45:06;;;;;;;13.63;2.63;;;3.60;99.90;;;;;;5095009;28;20044;-73
2024/01/14 03:47:31;;;;;;;21.15;3.53;;;3.70;99.90;;;;;;5095003;28;20048;-73
2024/01/14 03:49:57;;;;;;;17.00;2.60;;;3.70;99.90;;;;;;5094803;28;20054;-73
2024/01/14 03:52:23;;;;;;;15.13;2.70;;;3.70;99.90;;;;;;5076598;28;20486;-73
2024/01/14 03:54:49;;;;;;;21.87;2.60;;;3.80;99.90;;;;;;5094591;28;20059;-73
2024/01/14 03:57:14;;;;;;;20.00;3.63;;;3.80;99.90;;;;;;5094796;28;20055;-74
2024/01/14 03:59:40;;;;;;;28.10;3.37;;;3.80;99.90;;;;;;5093668;28;20083;-73
2024/01/14 04:02:06;;;;;;;20.93;3.17;;;3.80;99.90;;;;;;5094793;28;20047;-74
2024/01/14 04:04:32;;;;;;;21.90;3.80;;;3.80;99.90;;;;;;5093784;28;20074;-74
2024/01/14 04:06:58;;;;;;;21.30;3.20;;;3.80;99.90;;;;;;5094475;28;20106;-73
2024/01/14 04:09:24;;;;;;;21.50;3.10;;;3.90;99.90;;;;;;5094881;28;20083;-74
2024/01/14 04:11:49;;;;;;;20.87;2.90;;;3.80;99.90;;;;;;5094364;28;20043;-73
2024/01/14 04:14:15;;;;;;;28.43;3.13;;;3.80;99.90;;;;;;5093477;28;20040;-73
2024/01/14 04:16:41;;;;;;;22.00;2.93;;;3.70;99.90;;;;;;5094586;28;20051;-73
2024/01/14 04:19:07;;;;;;;22.92;4.47;;;3.80;99.90;;;;;;5094684;28;20355;-73
2024/01/14 04:21:34;;;;;;;21.33;2.83;;;3.70;99.90;;;;;;5094360;28;20040;-73
2024/01/14 04:24:02;;;;;;;24.58;2.90;;;3.70;99.90;;;;;;5094089;28;20090;-73
2024/01/14 04:26:28;;;;;;;22.13;3.80;;;3.70;99.90;;;;;;5094305;28;20052;-74
2024/01/14 04:28:54;;;;;;;20.60;3.88;;;3.70;99.90;;;;;;5093695;28;20545;-73
2024/01/14 04:31:20;;;;;;;23.40;3.13;;;3.60;99.90;;;;;;5094234;28;20083;-73
2024/01/14 04:33:46;;;;;;;25.20;3.20;;;3.60;99.90;;;;;;5093990;28;20043;-73
2024/01/14 04:36:12;;;;;;;32.85;3.75;;;3.50;99.90;;;;;;5094116;28;20050;-73
2024/01/14 04:38:38;;;;;;;24.70;2.63;;;3.50;99.90;;;;;;5093761;28;20123;-73
2024/01/14 04:41:04;;;;;;;25.30;2.57;;;3.50;99.90;;;;;;5093907;28;20047;-73
2024/01/14 04:43:30;;;;;;;17.20;2.40;;;3.50;99.90;;;;;;5094171;28;20142;-73
2024/01/14 04:45:55;;;;;;;29.63;3.60;;;3.40;99.90;;;;;;5093700;28;20409;-73
2024/01/14 04:48:21;;;;;;;26.47;3.47;;;3.40;99.90;;;;;;5093905;28;20040;-73
2024/01/14 04:50:47;;;;;;;30.50;3.33;;;3.40;99.90;;;;;;5093687;28;20083;-74
2024/01/14 04:53:12;;;;;;;18.37;2.40;;;3.40;99.90;;;;;;5091904;28;20479;-73
2024/01/14 04:55:38;;;;;;;15.87;2.97;;;3.40;99.90;;;;;;5093750;28;20044;-73
2024/01/14 04:58:04;;;;;;;18.93;3.33;;;3.40;99.90;;;;;;5093457;28;20529;-73
2024/01/14 05:00:30;;;;;;;16.80;2.75;;;3.40;99.90;;;;;;5093807;28;20048;-74
2024/01/14 05:02:56;;;;;;;16.30;1.90;;;3.40;99.90;;;;;;5093502;28;20040;-73
2024/01/14 05:05:21;;;;;;;19.07;2.10;;;3.40;99.90;;;;;;5092375;28;20389;-73
2024/01/14 05:07:47;;;;;;;16.77;2.20;;;3.50;99.90;;;;;;5093006;28;20048;-73
2024/01/14 05:10:13;;;;;;;14.77;2.53;;;3.50;99.90;;;;;;5093657;28;20048;-73
2024/01/14 05:12:39;;;;;;;16.80;2.40;;;3.50;99.90;;;;;;5093572;28;20123;-73
2024/01/14 05:15:05;;;;;;;21.50;2.53;;;3.50;99.90;;;;;;5093047;28;20152;-73
2024/01/14 05:17:31;;;;;;;14.88;2.25;;;3.50;99.90;;;;;;5093356;28;20062;-73
2024/01/14 05:19:56;;;;;;;24.87;2.90;;;3.50;99.90;;;;;;5093170;28;20490;-73
2024/01/14 05:22:22;;;;;;;17.40;2.80;;;3.60;99.90;;;;;;5092236;28;20052;-73
2024/01/14 05:24:50;;;;;;;15.90;2.50;;;3.60;99.90;;;;;;5093279;28;20086;-72
2024/01/14 05:27:16;;;;;;;18.55;3.08;;;3.60;99.90;;;;;;5093226;28;20047;-73
2024/01/14 05:29:43;;;;;;;21.27;2.60;;;3.60;99.90;;;;;;5093341;28;20552;-73
2024/01/14 05:32:16;;;;;;;23.75;2.47;;;3.60;99.90;;;;;;5093154;28;20088;-73
2024/01/14 05:34:42;;;;;;;20.80;2.20;;;3.60;99.90;;;;;;5093450;28;20048;-73
2024/01/14 05:37:08;;;;;;;19.42;3.80;;;3.70;99.90;;;;;;5093044;28;20048;-73
2024/01/14 05:39:34;;;;;;;21.70;2.97;;;3.60;99.90;;;;;;5093363;28;20089;-73
2024/01/14 05:42:00;;;;;;;21.40;3.15;;;3.60;99.90;;;;;;5091843;28;20135;-73
2024/01/14 05:44:26;;;;;;;19.95;2.47;;;3.60;99.90;;;;;;5093198;28;20090;-73
2024/01/14 05:46:53;;;;;;;16.13;2.33;;;3.60;99.90;;;;;;5092972;28;20087;-73
2024/01/14 05:49:19;;;;;;;20.88;3.00;;;3.60;99.90;;;;;;5093155;28;20052;-73
2024/01/14 05:51:45;;;;;;;21.38;3.78;;;3.60;99.90;;;;;;5092757;28;20066;-73
2024/01/14 05:54:10;;;;;;;17.83;2.80;;;3.50;99.90;;;;;;5093008;28;20052;-73
2024/01/14 05:56:36;;;;;;;13.93;2.47;;;3.50;99.90;;;;;;5093097;28;20044;-73
2024/01/14 05:59:02;;;;;;;15.00;2.03;;;3.40;99.90;;;;;;5092854;28;20040;-73
2024/01/14 06:01:29;;;;;;;19.97;2.80;;;3.40;99.90;;;;;;5093260;28;20090;-73
2024/01/14 06:03:58;;;;;;;24.05;3.75;;;3.40;99.90;;;;;;5091942;28;20290;-73
2024/01/14 06:06:23;;;;;;;21.38;2.88;;;3.40;99.90;;;;;;5093103;28;20048;-73
2024/01/14 06:08:49;;;;;;;21.27;2.77;;;3.30;99.90;;;;;;5093239;28;20040;-73
2024/01/14 06:11:16;;;;;;;26.97;3.13;;;3.30;99.90;;;;;;5091868;28;20075;-73
2024/01/14 06:13:41;;;;;;;16.10;2.83;;;3.30;99.90;;;;;;5092892;28;20044;-73
2024/01/14 06:16:08;;;;;;;23.17;2.67;;;3.40;99.90;;;;;;5092630;28;20051;-73
2024/01/14 06:18:34;;;;;;;24.80;2.35;;;3.30;99.90;;;;;;5093330;28;20044;-73
2024/01/14 06:21:00;;;;;;;14.17;2.33;;;3.40;99.90;;;;;;5096521;28;20402;-72
2024/01/14 06:23:27;;;;;;;14.20;2.53;;;3.40;99.90;;;;;;5096643;28;20281;-73
2024/01/14 06:25:53;;;;;;;18.42;2.80;;;3.40;99.90;;;;;;5095548;28;20051;-73
2024/01/14 06:28:19;;;;;;;16.20;2.40;;;3.40;99.90;;;;;;5096962;28;20038;-73
2024/01/14 06:30:44;;;;;;;20.50;2.60;;;3.40;99.90;;;;;;5096384;28;20044;-73
2024/01/14 06:33:10;;;;;;;11.13;1.90;;;3.40;99.90;;;;;;5096287;28;20148;-73
2024/01/14 06:35:36;;;;;;;19.98;2.90;;;3.40;99.90;;;;;;5096452;28;20044;-73
2024/01/14 06:38:02;;;;;;;13.27;2.20;;;3.40;99.90;;;;;;5096114;28;20063;-73
2024/01/14 06:40:28;;;;;;;15.43;1.85;;;3.40;99.90;;;;;;5096389;28;20181;-73
2024/01/14 06:42:54;;;;;;;15.83;1.90;;;3.40;99.90;;;;;;5096292;28;20076;-73
2024/01/14 06:45:20;;;;;;;18.07;2.33;;;3.50;99.90;;;;;;5096061;28;20052;-73
2024/01/14 06:47:45;;;;;;;13.13;2.50;;;3.40;99.90;;;;;;5096191;28;20042;-73
2024/01/14 06:50:12;;;;;;;17.50;1.97;;;3.30;99.90;;;;;;5095943;28;20301;-73
2024/01/14 06:52:38;;;;;;;16.52;1.95;;;3.40;99.90;;;;;;5094802;28;20048;-73
2024/01/14 06:55:05;;;;;;;15.50;1.90;;;3.40;99.90;;;;;;5095845;28;20051;-73
2024/01/14 06:57:31;;;;;;;13.85;1.88;;;3.40;99.90;;;;;;5095998;28;20294;-73
2024/01/14 06:59:59;;;;;;;21.00;2.35;;;3.40;99.90;;;;;;5094501;28;20535;-73
2024/01/14 07:02:26;;;;;;;17.15;2.88;;;3.50;99.90;;;;;;5096235;28;20066;-73
2024/01/14 07:04:52;;;;;;;21.58;3.03;;;3.50;99.90;;;;;;5095926;28;20047;-73
2024/01/14 07:07:18;;;;;;;21.25;2.00;;;3.50;99.90;;;;;;5095640;28;20047;-73
2024/01/14 07:09:44;;;;;;;15.70;2.43;;;3.50;99.90;;;;;;5094884;28;20532;-73
2024/01/14 07:12:09;;;;;;;15.20;2.47;;;3.50;99.90;;;;;;5095564;28;20558;-73
2024/01/14 07:14:35;;;;;;;19.03;2.50;;;3.50;99.90;;;;;;5095764;28;20079;-73
2024/01/14 07:17:01;;;;;;;15.57;2.27;;;3.60;99.90;;;;;;5095398;28;20051;-73
2024/01/14 07:19:27;;;;;;;17.20;2.43;;;3.50;99.90;;;;;;5095700;28;20047;-73
2024/01/14 07:21:52;;;;;;;22.87;2.20;;;3.50;99.90;;;;;;5095504;28;20052;-73
2024/01/14 07:24:18;;;;;;;15.73;2.40;;;3.50;99.90;;;;;;5094109;28;20057;-73
2024/01/14 07:26:44;;;;;;;21.00;3.07;;;3.50;99.90;;;;;;5095464;28;20048;-73
2024/01/14 07:29:09;;;;;;;16.30;2.13;;;3.50;99.90;;;;;;5095112;28;20146;-72
2024/01/14 07:31:35;;;;;;;14.23;2.20;;;3.50;99.90;;;;;;5095042;28;20084;-73
2024/01/14 07:34:01;;;;;;;18.53;2.37;;;3.50;99.90;;;;;;5094335;28;20051;-73
2024/01/14 07:36:27;;;;;;;14.03;2.30;;;3.60;99.90;;;;;;5093944;28;20551;-73
2024/01/14 07:38:53;;;;;;;16.33;2.10;;;3.60;99.90;;;;;;5095096;28;20135;-74
2024/01/14 07:41:19;;;;;;;19.45;2.13;;;3.60;99.90;;;;;;5094995;28;20047;-73
2024/01/14 07:43:46;;;;;;;20.42;3.03;;;3.60;99.90;;;;;;5094192;28;20048;-73
2024/01/14 07:46:12;;;;;;;14.48;2.78;;;3.60;99.90;;;;;;5094949;28;20062;-73
2024/01/14 07:48:38;;;;;;;13.48;2.10;;;3.60;99.90;;;;;;5094991;28;20032;-73
2024/01/14 07:51:04;;;;;;;15.75;2.47;;;3.60;99.90;;;;;;5095085;28;20113;-73
2024/01/14 07:53:30;;;;;;;18.63;2.40;;;3.60;99.90;;;;;;5093555;28;20440;-72
2024/01/14 07:55:56;;;;;;;16.95;2.58;;;3.60;99.90;;;;;;5094874;28;20056;-73
2024/01/14 07:58:22;;;;;;;20.03;2.50;;;3.50;99.90;;;;;;5093470;28;20040;-73
2024/01/14 08:00:47;;;;;;;14.57;2.50;;;3.50;99.90;;;;;;5093654;28;20056;-73
2024/01/14 08:03:14;;;;;;;17.77;2.10;;;3.50;99.90;;;;;;5094550;28;20079;-73
2024/01/14 08:05:39;;;;;;;17.60;2.70;;;3.50;99.90;;;;;;5093532;28;20040;-77
2024/01/14 08:08:05;;;;;;;20.70;2.80;;;3.60;99.90;;;;;;5094784;28;20047;-73
2024/01/14 08:10:32;;;;;;;20.05;3.05;;;3.50;99.90;;;;;;5094529;28;20044;-73
2024/01/14 08:12:58;;;;;;;16.67;2.63;;;3.60;99.90;;;;;;5094545;28;20052;-72
2024/01/14 08:15:24;;;;;;;18.27;3.08;;;3.60;99.90;;;;;;5094374;28;20052;-73
2024/01/14 08:17:50;;;;;;;18.35;2.70;;;3.60;99.90;;;;;;5090859;28;20082;-72
2024/01/14 08:20:16;;;;;;;18.90;3.33;;;3.60;99.90;;;;;;5094340;28;20086;-73
2024/01/14 08:22:42;;;;;;;17.73;2.80;;;3.60;99.90;;;;;;5094426;28;20042;-70
2024/01/14 08:25:09;;;;;;;22.65;3.22;;;3.60;99.90;;;;;;5094363;28;20048;-75
2024/01/14 08:27:35;;;;;;;15.43;3.33;;;3.60;99.90;;;;;;5094532;28;20126;-74
2024/01/14 08:30:01;;;;;;;19.93;3.17;;;3.60;99.90;;;;;;5095236;28;20127;-75
2024/01/14 08:32:27;;;;;;;18.95;3.00;;;3.70;99.90;;;;;;5093950;28;20054;-74
2024/01/14 08:34:53;;;;;;;17.85;3.53;;;3.70;99.90;;;;;;5094223;28;20078;-74
2024/01/14 08:37:19;;;;;;;20.23;3.40;;;3.70;99.90;;;;;;5092714;28;20478;-74
2024/01/14 08:39:44;;;;;;;25.27;4.23;;;3.70;99.90;;;;;;5093373;28;20051;-74
2024/01/14 08:42:10;;;;;;;20.03;4.40;;;3.70;99.90;;;;;;5093336;28;20040;-74
2024/01/14 08:44:36;;;;;;;22.23;4.50;;;3.80;99.90;;;;;;5093944;28;20094;-74
2024/01/14 08:47:02;;;;;;;17.48;4.63;;;3.70;99.90;;;;;;5092841;28;20052;-74
2024/01/14 08:49:29;;;;;;;17.03;3.97;;;3.80;99.90;;;;;;5092816;28;20101;-73
2024/01/14 08:51:58;;;;;;;18.17;3.00;;;3.70;99.90;;;;;;5093612;28;20060;-74
2024/01/14 08:54:24;;;;;;;16.23;2.97;;;3.70;99.90;;;;;;5093665;28;20048;-74
2024/01/14 08:56:49;;;;;;;18.43;2.87;;;3.80;99.90;;;;;;5093746;28;20048;-74
2024/01/14 08:59:15;;;;;;;13.23;2.20;;;3.70;99.90;;;;;;5093380;28;20036;-74
2024/01/14 09:01:41;;;;;;;14.50;2.30;;;3.70;99.90;;;;;;5093759;28;20043;-74
2024/01/14 09:04:06;;;;;;;17.13;2.93;;;3.60;99.90;;;;;;5093694;28;20520;-74
2024/01/14 09:06:35;;;;;;;12.90;2.50;;;3.60;99.90;;;;;;5093168;28;20113;-74
2024/01/14 09:09:00;;;;;;;15.45;2.70;;;3.60;99.90;;;;;;5093864;28;20168;-75
2024/01/14 09:11:26;;;;;;;20.17;3.10;;;3.60;99.90;;;;;;5093396;28;20130;-75
2024/01/14 09:13:52;;;;;;;16.47;3.43;;;3.60;99.90;;;;;;5093621;28;20040;-75
2024/01/14 09:16:17;;;;;;;14.53;3.57;;;3.70;99.90;;;;;;5093622;28;20083;-74
2024/01/14 09:18:43;;;;;;;21.50;3.27;;;3.70;99.90;;;;;;5093775;28;20048;-74
2024/01/14 09:21:09;;;;;;;17.73;3.07;;;3.80;99.90;;;;;;5092248;28;20119;-75
2024/01/14 09:23:34;;;;;;;19.37;2.90;;;3.90;99.90;;;;;;5093192;28;20047;-75
2024/01/14 09:26:01;;;;;;;13.80;3.10;;;3.90;99.90;;;;;;5093621;28;20040;-75
2024/01/14 09:28:28;;;;;;;12.38;1.92;;;4.00;99.90;;;;;;5092865;28;20554;-74
2024/01/14 09:30:54;;;;;;;13.77;2.10;;;4.00;99.90;;;;;;5093340;28;20142;-76
2024/01/14 09:33:20;;;;;;;15.40;2.45;;;4.00;99.90;;;;;;5093145;28;20122;-74
2024/01/14 09:35:45;;;;;;;13.40;1.97;;;4.10;99.90;;;;;;5093311;28;20131;-76
2024/01/14 09:38:11;;;;;;;14.37;2.27;;;4.10;99.90;;;;;;5093219;28;20036;-74
2024/01/14 09:40:37;;;;;;;9.37;2.20;;;4.20;99.90;;;;;;5095500;28;20098;-75
2024/01/14 09:43:04;;;;;;;10.77;2.22;;;4.30;99.90;;;;;;5093259;28;20056;-76
2024/01/14 09:45:34;;;;;;;16.00;2.67;;;4.30;99.90;;;;;;5093152;28;20048;-77
2024/01/14 09:48:00;;;;;;;14.48;2.00;;;4.40;99.90;;;;;;5093212;28;20408;-78
2024/01/14 09:50:26;;;;;;;11.07;1.77;;;4.40;99.90;;;;;;5093069;28;20059;-77
2024/01/14 09:52:55;;;;;;;10.40;1.80;;;4.40;99.90;;;;;;5093657;28;20056;-77
2024/01/14 09:55:21;;;;;;;13.80;1.90;;;4.50;99.90;;;;;;5095395;28;20075;-76
2024/01/14 09:57:49;;;;;;;17.17;3.70;;;4.50;99.90;;;;;;5097057;28;20082;-75
2024/01/14 10:00:15;;;;;;;14.95;8.15;;;4.50;99.90;;;;;;5097174;28;20040;-77
2024/01/14 10:02:41;;;;;;;12.30;2.92;;;4.60;99.90;;;;;;5096879;28;20052;-78
2024/01/14 10:05:08;;;;;;;14.77;3.93;;;4.60;99.90;;;;;;5095598;28;20469;-78
2024/01/14 10:07:35;;;;;;;14.43;4.05;;;4.60;99.90;;;;;;5096779;28;20051;-78
2024/01/14 10:10:00;;;;;;;18.40;3.53;;;4.70;99.90;;;;;;5095954;28;20526;-78
2024/01/14 10:12:26;;;;;;;15.10;3.33;;;4.70;99.90;;;;;;5094950;28;20048;-77
2024/01/14 10:14:59;;;;;;;19.30;4.57;;;4.70;99.90;;;;;;5095829;28;20044;-76
2024/01/14 10:17:26;;;;;;;17.20;3.55;;;4.70;99.90;;;;;;5095538;28;20127;-76
2024/01/14 10:19:53;;;;;;;12.05;2.60;;;4.80;99.90;;;;;;5095479;28;20055;-86
2024/01/14 10:22:19;;;;;;;11.43;2.10;;;4.80;99.90;;;;;;5096917;28;20044;-82
2024/01/14 10:24:52;;;;;;;16.60;2.65;;;4.80;99.90;;;;;;5096425;28;20486;-82
2024/01/14 10:27:21;;;;;;;16.98;2.78;;;4.80;99.90;;;;;;5096677;28;20394;-81
2024/01/14 10:29:49;;;;;;;20.30;3.47;;;4.90;99.90;;;;;;5095969;28;20070;-81
2024/01/14 10:32:15;;;;;;;13.63;2.75;;;4.80;99.90;;;;;;5096244;28;20055;-81
2024/01/14 10:34:41;;;;;;;18.33;4.80;;;4.90;99.90;;;;;;5096321;28;20052;-82
2024/01/14 10:37:07;;;;;;;18.13;6.18;;;4.90;99.90;;;;;;5096440;28;20051;-81
2024/01/14 10:39:34;;;;;;;16.55;4.50;;;4.90;99.90;;;;;;5094931;28;20044;-85
2024/01/14 10:42:01;;;;;;;16.10;3.63;;;5.00;99.90;;;;;;5096438;28;20042;-83
2024/01/14 10:44:27;;;;;;;12.98;2.90;;;5.00;99.90;;;;;;5096230;28;20099;-82
2024/01/14 10:46:56;;;;;;;16.80;2.67;;;5.00;99.90;;;;;;5096281;28;20094;-84
2024/01/14 10:49:25;;;;;;;16.50;2.60;;;5.00;99.90;;;;;;5096315;28;20032;-82
2024/01/14 10:52:00;;;;;;;15.85;2.63;;;4.90;99.90;;;;;;5095660;28;20074;-82
2024/01/14 10:54:35;;;;;;;12.07;2.30;;;4.90;99.90;;;;;;5095133;28;20051;-81
2024/01/14 10:57:23;;;;;;;12.00;2.10;;;4.80;99.90;;;;;;5096090;28;20052;-73
2024/01/14 10:59:55;;;;;;;12.65;2.17;;;4.90;99.90;;;;;;5095870;28;20062;-75
2024/01/14 11:02:21;;;;;;;13.10;2.58;;;4.80;99.90;;;;;;5095100;28;20055;-75
2024/01/14 11:04:48;;;;;;;12.10;2.73;;;4.80;99.90;;;;;;5093964;28;20047;-76
2024/01/14 11:07:13;;;;;;;13.25;2.22;;;4.80;99.90;;;;;;5095823;28;20051;-76
2024/01/14 11:09:41;;;;;;;11.93;1.87;;;4.80;99.90;;;;;;5094368;28;20047;-75
2024/01/14 11:12:14;;;;;;;9.18;2.53;;;4.90;99.90;;;;;;5095669;28;20044;-81
2024/01/14 11:14:49;;;;;;;16.98;2.60;;;5.00;99.90;;;;;;5095252;28;20478;-81
2024/01/14 11:17:52;;;;;;;11.45;1.67;;;5.00;99.90;;;;;;5095937;28;20052;-81
2024/01/14 11:20:21;;;;;;;10.93;2.35;;;5.00;99.90;;;;;;5095619;28;20056;-81
2024/01/14 11:22:49;;;;;;;12.48;1.83;;;5.00;99.90;;;;;;5094989;28;20490;-80
2024/01/14 11:25:18;;;;;;;12.50;2.00;;;5.00;99.90;;;;;;5095430;28;20052;-75
2024/01/14 11:27:44;;;;;;;11.02;2.20;;;5.00;99.90;;;;;;5094270;28;20055;-76
2024/01/14 11:30:15;;;;;;;8.33;1.70;;;5.00;99.90;;;;;;5095103;28;20047;-81
2024/01/14 11:32:41;;;;;;;7.97;1.65;;;5.00;99.90;;;;;;5095352;28;20043;-75
2024/01/14 11:35:09;;;;;;;9.02;1.50;;;5.00;99.90;;;;;;5095215;28;20105;-77
2024/01/14 11:37:45;;;;;;;10.57;2.00;;;5.00;99.90;;;;;;5094997;28;20044;-77
2024/01/14 11:40:17;;;;;;;8.95;1.73;;;5.00;99.90;;;;;;5095174;28;20392;-79
2024/01/14 11:42:59;;;;;;;7.47;1.40;;;5.00;99.90;;;;;;5094969;28;20090;-77
2024/01/14 11:45:25;;;;;;;11.25;1.92;;;4.90;99.90;;;;;;5095673;28;20397;-78
2024/01/14 11:47:52;;;;;;;6.40;1.30;;;4.90;99.90;;;;;;5093932;28;20056;-76
2024/01/14 11:50:19;;;;;;;9.25;1.50;;;4.90;99.90;;;;;;5094654;28;20486;-79
2024/01/14 11:52:45;;;;;;;11.23;1.30;;;4.80;99.90;;;;;;5094745;28;20094;-77
2024/01/14 11:55:14;;;;;;;8.43;1.73;;;4.90;99.90;;;;;;5095197;28;20127;-82
2024/01/14 11:57:41;;;;;;;11.25;1.52;;;4.80;99.90;;;;;;5093684;28;20044;-76
2024/01/14 12:00:08;;;;;;;9.95;1.65;;;4.90;99.90;;;;;;5094802;28;20051;-78
2024/01/14 12:02:34;;;;;;;17.05;2.00;;;4.90;99.90;;;;;;5088304;28;20044;-75
2024/01/14 12:05:20;;;;;;;8.63;1.92;;;4.90;99.90;;;;;;5093788;28;20130;-78
2024/01/14 12:07:46;;;;;;;8.07;1.58;;;4.90;99.90;;;;;;5086082;28;20421;-77
2024/01/14 12:10:16;;;;;;;6.43;1.65;;;4.90;99.90;;;;;;5094213;28;20052;-80
2024/01/14 12:12:42;;;;;;;10.35;1.45;;;4.90;99.90;;;;;;5087902;28;20056;-80
2024/01/14 12:15:09;;;;;;;11.85;1.48;;;5.00;99.90;;;;;;5093905;28;20047;-79
2024/01/14 12:17:35;;;;;;;6.10;1.50;;;5.00;99.90;;;;;;5093075;28;20055;-84
2024/01/14 12:20:05;;;;;;;13.38;1.80;;;5.00;99.90;;;;;;5075895;28;20051;-83
2024/01/14 12:22:31;;;;;;;8.93;1.35;;;5.00;99.90;;;;;;5094287;28;20066;-74
2024/01/14 12:24:57;;;;;;;10.50;1.67;;;5.00;99.90;;;;;;5092769;28;20043;-75
2024/01/14 12:27:23;;;;;;;11.83;2.27;;;5.00;99.90;;;;;;5094121;28;20051;-78
2024/01/14 12:29:49;;;;;;;11.83;2.00;;;5.10;99.90;;;;;;5093059;28;20142;-79
2024/01/14 12:32:15;;;;;;;8.93;2.07;;;5.10;99.90;;;;;;5094394;28;20066;-79
2024/01/14 12:34:41;;;;;;;14.75;2.03;;;5.20;99.90;;;;;;5093838;28;20079;-83
2024/01/14 12:37:07;;;;;;;13.07;2.07;;;5.20;99.90;;;;;;5094615;28;20106;-83
2024/01/14 12:39:33;;;;;;;15.83;2.67;;;5.30;99.90;;;;;;5094106;28;20048;-83
2024/01/14 12:42:00;;;;;;;11.93;2.00;;;5.30;99.90;;;;;;5093901;28;20478;-83
2024/01/14 12:44:26;;;;;;;14.82;2.70;;;5.30;99.90;;;;;;5092725;28;20047;-88